BZR weather

Béziers-Vias Airport
Béziers/Vias, Languedoc-Roussillon, France

Public forecast

Using degrees Celsius for public forecast. Weather courtesy of forecast.io.

METAR (pilot weather report)

Retrieved 2019/03/21 05:00 UTC (17 minutes ago):

LFMU 210500Z AUTO 30004KT CAVOK 02/M03 Q1028 NOSIG

TAF (pilot weather forecast)

Retrieved 2019/03/21 03:42 UTC (2 hours ago):

TAF LFMU 210200Z 2103/2203 26008KT CAVOK BECMG 2110/2112 19010KT BECMG 2121/2123 36008KT